createdAt,value
2019-05-01T00:01:11.356Z,90.00
2019-05-01T00:03:41.764Z,93.10
2019-05-01T00:06:12.382Z,100.05
2019-05-01T00:08:41.233Z,105.55
2019-05-01T00:11:09.967Z,98.52
2019-05-01T00:13:38.743Z,99.50
2019-05-01T00:16:07.545Z,96.80
2019-05-01T00:18:36.311Z,97.40
2019-05-01T00:21:05.045Z,95.55
2019-05-01T00:23:33.819Z,102.85
2019-05-01T00:26:02.564Z,102.42
2019-05-01T00:28:31.401Z,106.20
2019-05-01T00:31:00.220Z,102.55
2019-05-01T00:33:28.994Z,102.82
2019-05-01T00:35:57.730Z,95.80
2019-05-01T00:38:26.502Z,102.85
2019-05-01T00:40:55.312Z,101.85
2019-05-01T00:43:24.099Z,110.50
2019-05-01T00:45:52.832Z,110.68
2019-05-01T00:48:21.576Z,111.55
2019-05-01T00:50:50.341Z,129.68
2019-05-01T00:53:19.161Z,137.92
2019-05-01T00:56:04.713Z,134.37
2019-05-01T00:58:50.492Z,133.23
2019-05-01T01:01:23.824Z,123.33
2019-05-01T01:03:52.677Z,128.53
2019-05-01T01:06:21.512Z,124.05
2019-05-01T01:08:50.277Z,130.20
2019-05-01T01:11:19.044Z,133.10
2019-05-01T01:13:47.785Z,129.27
2019-05-01T01:16:16.557Z,139.35
2019-05-01T01:18:46.539Z,136.32
2019-05-01T01:21:15.338Z,128.68
2019-05-01T01:23:44.843Z,133.60
2019-05-01T01:26:13.902Z,133.30
2019-05-01T01:28:42.647Z,125.85
2019-05-01T01:31:11.480Z,108.87
2019-05-01T01:33:40.217Z,98.60
2019-05-01T01:36:08.980Z,93.97
2019-05-01T01:38:37.738Z,100.35
2019-05-01T01:41:06.733Z,103.78
2019-05-01T01:43:53.620Z,105.67
2019-05-01T01:46:27.247Z,107.92
2019-05-01T01:48:56.651Z,109.27
2019-05-01T01:51:25.617Z,111.35
2019-05-01T01:53:55.128Z,117.05
2019-05-01T01:56:23.900Z,116.17
2019-05-01T01:58:53.736Z,114.37
2019-05-01T02:01:40.197Z,115.73
2019-05-01T02:04:13.328Z,122.17
2019-05-01T02:06:42.172Z,111.80
2019-05-01T02:09:11.075Z,123.80
2019-05-01T02:11:40.136Z,122.37
2019-05-01T02:14:08.884Z,121.53
2019-05-01T02:16:37.763Z,125.43
2019-05-01T02:19:06.573Z,123.02
2019-05-01T02:21:35.341Z,116.10
2019-05-01T02:24:04.076Z,120.70
2019-05-01T02:26:34.540Z,119.43
2019-05-01T02:29:04.927Z,115.63
2019-05-01T02:31:36.337Z,114.97
2019-05-01T02:34:06.247Z,145.43
2019-05-01T02:36:35.257Z,137.55
2019-05-01T02:39:05.748Z,144.22
2019-05-01T02:41:36.611Z,164.93
2019-05-01T02:44:11.401Z,172.65
2019-05-01T02:46:43.119Z,177.40
2019-05-01T02:49:17.596Z,163.00
2019-05-01T02:51:46.657Z,161.88
2019-05-01T02:54:18.339Z,179.80
2019-05-01T02:56:59.553Z,174.27
2019-05-01T02:59:30.643Z,173.07
2019-05-01T03:02:02.071Z,178.85
2019-05-01T03:04:31.410Z,177.55
2019-05-01T03:07:00.980Z,171.40
2019-05-01T03:09:30.263Z,179.03
2019-05-01T03:12:00.300Z,171.75
2019-05-01T03:14:58.161Z,179.00
2019-05-01T03:17:31.960Z,173.68
2019-05-01T03:20:03.677Z,176.45
2019-05-01T03:22:34.462Z,167.32
2019-05-01T03:25:03.323Z,180.27
2019-05-01T03:27:32.080Z,171.75
2019-05-01T03:30:00.914Z,168.87
2019-05-01T03:32:29.862Z,167.35
2019-05-01T03:34:58.706Z,184.05
2019-05-01T03:37:27.881Z,181.20
2019-05-01T03:39:56.964Z,172.60
2019-05-01T03:42:26.101Z,175.60
2019-05-01T03:44:55.057Z,176.23
2019-05-01T03:47:23.794Z,181.35
2019-05-01T03:49:53.086Z,167.50
2019-05-01T03:52:22.139Z,126.10
2019-05-01T03:54:50.909Z,155.00
2019-05-01T03:57:19.987Z,155.80
2019-05-01T03:59:49.226Z,154.90
2019-05-01T04:02:33.255Z,150.53
2019-05-01T04:04:50.526Z,160.65
2019-05-01T04:07:19.592Z,154.18
2019-05-01T04:09:50.219Z,148.05
2019-05-01T04:12:19.404Z,150.57
2019-05-01T04:14:49.025Z,154.82
2019-05-01T04:17:25.723Z,157.22
2019-05-01T04:19:54.564Z,161.45
2019-05-01T04:22:23.901Z,158.67
2019-05-01T04:24:52.940Z,152.55
2019-05-01T04:27:23.617Z,166.03
2019-05-01T04:29:54.243Z,165.75
2019-05-01T04:32:24.819Z,187.65
2019-05-01T04:34:55.330Z,176.27
2019-05-01T04:37:25.685Z,191.37
2019-05-01T04:39:55.013Z,197.40
2019-05-01T04:42:23.773Z,190.15
2019-05-01T04:44:52.534Z,191.28
2019-05-01T04:47:22.101Z,193.13
2019-05-01T04:49:50.838Z,180.47
2019-05-01T04:52:19.715Z,195.05
2019-05-01T04:54:48.654Z,179.23
2019-05-01T04:57:18.021Z,169.53
2019-05-01T04:59:47.925Z,179.43
2019-05-01T05:02:32.493Z,181.57
2019-05-01T05:05:01.375Z,184.78
2019-05-01T05:07:30.256Z,184.07
2019-05-01T05:09:59.372Z,181.02
2019-05-01T05:12:29.985Z,173.55
2019-05-01T05:15:12.899Z,169.43
2019-05-01T05:17:42.299Z,172.22
2019-05-01T05:20:11.299Z,170.85
2019-05-01T05:22:40.241Z,167.43
2019-05-01T05:25:09.008Z,167.85
2019-05-01T05:27:38.376Z,157.22
2019-05-01T05:30:07.184Z,164.37
2019-05-01T05:32:37.957Z,164.93
2019-05-01T05:35:08.165Z,162.77
2019-05-01T05:37:56.294Z,160.10
2019-05-01T05:40:28.783Z,161.62
2019-05-01T05:42:58.138Z,160.67
2019-05-01T05:45:27.479Z,143.37
2019-05-01T05:47:56.398Z,153.18
2019-05-01T05:50:26.888Z,148.93
2019-05-01T05:53:18.372Z,154.90
2019-05-01T05:55:56.120Z,147.22
2019-05-01T05:58:27.031Z,145.02
2019-05-01T06:01:15.748Z,145.65
2019-05-01T06:03:48.931Z,141.67
2019-05-01T06:06:43.807Z,148.53
2019-05-01T06:09:15.672Z,144.40
2019-05-01T06:12:04.856Z,137.45
2019-05-01T06:14:41.032Z,141.37
2019-05-01T06:17:17.000Z,139.62
2019-05-01T06:19:50.960Z,153.18
2019-05-01T06:22:28.381Z,140.73
2019-05-01T06:25:21.480Z,134.90
2019-05-01T06:27:39.876Z,143.80
2019-05-01T06:30:10.988Z,152.57
2019-05-01T06:32:41.392Z,143.02
2019-05-01T06:35:10.328Z,131.18
2019-05-01T06:38:02.195Z,136.05
2019-05-01T06:40:43.049Z,131.45
2019-05-01T06:43:20.201Z,125.22
2019-05-01T06:46:07.829Z,110.75
2019-05-01T06:48:38.212Z,115.15
2019-05-01T06:51:24.865Z,107.25
2019-05-01T06:53:53.680Z,112.88
2019-05-01T06:56:22.649Z,110.83
2019-05-01T06:58:55.234Z,112.55
2019-05-01T07:01:24.043Z,115.95
2019-05-01T07:04:03.654Z,110.65
2019-05-01T07:06:26.068Z,105.85
2019-05-01T07:08:54.134Z,108.57
2019-05-01T07:11:22.991Z,124.55
2019-05-01T07:13:51.808Z,108.90
2019-05-01T07:16:23.321Z,116.53
2019-05-01T07:18:58.010Z,105.87
2019-05-01T07:21:27.723Z,104.23
2019-05-01T07:23:55.484Z,95.92
2019-05-01T07:26:24.274Z,116.70
2019-05-01T07:29:06.080Z,109.85
2019-05-01T07:31:34.893Z,104.78
2019-05-01T07:34:15.837Z,100.22
2019-05-01T07:36:34.191Z,109.63
2019-05-01T07:39:04.697Z,97.42
2019-05-01T07:41:33.887Z,93.82
2019-05-01T07:44:22.817Z,96.87
2019-05-01T07:46:56.296Z,89.50
2019-05-01T07:49:28.220Z,89.35
2019-05-01T07:51:57.180Z,83.65
2019-05-01T07:54:25.940Z,103.15
2019-05-01T07:56:58.784Z,86.22
2019-05-01T07:59:27.490Z,90.07
2019-05-01T08:01:59.950Z,106.40
2019-05-01T08:04:35.888Z,83.00
2019-05-01T08:06:59.161Z,84.13
2019-05-01T08:09:27.936Z,72.00
2019-05-01T08:11:56.680Z,80.28
2019-05-01T08:14:25.459Z,68.65
2019-05-01T08:16:54.283Z,67.85
2019-05-01T08:19:27.104Z,67.72
2019-05-01T08:22:01.605Z,77.10
2019-05-01T08:24:27.968Z,69.97
2019-05-01T08:26:56.787Z,71.65
2019-05-01T08:29:43.824Z,63.33
2019-05-01T08:32:14.252Z,72.40
2019-05-01T08:34:49.185Z,72.32
2019-05-01T08:37:13.452Z,65.35
2019-05-01T08:39:44.318Z,64.70
2019-05-01T08:42:12.609Z,79.55
2019-05-01T08:44:43.132Z,63.90
2019-05-01T08:47:16.504Z,62.03
2019-05-01T08:49:58.980Z,60.70
2019-05-01T08:52:27.728Z,81.22
2019-05-01T08:54:56.617Z,93.37
2019-05-01T08:57:29.201Z,67.42
2019-05-01T09:00:00.184Z,66.93
2019-05-01T09:02:26.268Z,60.35
2019-05-01T09:05:02.152Z,72.85
2019-05-01T09:07:25.488Z,68.97
2019-05-01T09:09:54.229Z,70.30
2019-05-01T09:12:23.264Z,78.22
2019-05-01T09:14:52.097Z,75.05
2019-05-01T09:17:20.861Z,90.22
2019-05-01T09:19:49.597Z,80.65
2019-05-01T09:22:18.365Z,79.25
2019-05-01T09:24:48.076Z,90.60
2019-05-01T09:27:34.940Z,82.47
2019-05-01T09:30:09.520Z,98.95
2019-05-01T09:32:38.297Z,110.03
2019-05-01T09:35:15.403Z,83.97
2019-05-01T09:37:37.548Z,86.07
2019-05-01T09:40:10.411Z,89.13
2019-05-01T09:42:39.362Z,99.37
2019-05-01T09:45:08.397Z,99.67
2019-05-01T09:47:37.529Z,90.15
2019-05-01T09:50:07.448Z,91.57
2019-05-01T09:52:47.084Z,81.75
2019-05-01T09:55:24.901Z,92.15
2019-05-01T09:57:53.861Z,99.40
2019-05-01T10:00:24.976Z,100.35
2019-05-01T10:02:54.751Z,83.30
2019-05-01T10:05:29.133Z,92.33
2019-05-01T10:07:59.977Z,94.37
2019-05-01T10:10:24.814Z,87.57
2019-05-01T10:12:54.941Z,80.77
2019-05-01T10:15:23.782Z,129.05
2019-05-01T10:17:52.593Z,117.10
2019-05-01T10:20:21.365Z,107.87
2019-05-01T10:22:50.108Z,117.42
2019-05-01T10:25:18.880Z,114.82
2019-05-01T10:27:49.281Z,114.28
2019-05-01T10:30:22.442Z,118.42
2019-05-01T10:32:57.926Z,109.15
2019-05-01T10:35:42.820Z,108.20
2019-05-01T10:38:09.308Z,113.10
2019-05-01T10:40:37.524Z,123.60
2019-05-01T10:43:06.420Z,108.80
2019-05-01T10:45:35.237Z,97.22
2019-05-01T10:48:05.040Z,100.22
2019-05-01T10:50:33.922Z,104.07
2019-05-01T10:53:02.677Z,113.25
2019-05-01T10:55:31.441Z,98.95
2019-05-01T10:58:03.114Z,105.47
2019-05-01T11:00:30.948Z,108.12
2019-05-01T11:02:59.794Z,108.30
2019-05-01T11:05:28.572Z,120.67
2019-05-01T11:07:57.393Z,103.07
2019-05-01T11:10:26.164Z,98.65
2019-05-01T11:12:54.986Z,106.35
2019-05-01T11:15:23.798Z,104.53
2019-05-01T11:17:52.571Z,95.95
2019-05-01T11:20:21.405Z,105.07
2019-05-01T11:22:50.233Z,89.87
2019-05-01T11:25:20.647Z,81.57
2019-05-01T11:27:49.427Z,101.38
2019-05-01T11:30:18.532Z,95.63
2019-05-01T11:32:51.697Z,87.37
2019-05-01T11:35:25.127Z,92.90
2019-05-01T11:38:01.433Z,87.78
2019-05-01T11:40:37.898Z,89.80
2019-05-01T11:43:06.664Z,84.15
2019-05-01T11:45:35.468Z,87.47
2019-05-01T11:48:04.316Z,92.90
2019-05-01T11:50:36.045Z,79.97
2019-05-01T11:53:04.861Z,84.35
2019-05-01T11:55:33.598Z,71.77
2019-05-01T11:58:02.437Z,78.25
2019-05-01T12:00:31.254Z,76.20
2019-05-01T12:03:00.113Z,74.75
2019-05-01T12:05:28.861Z,73.65
2019-05-01T12:07:57.646Z,72.97
2019-05-01T12:10:26.455Z,74.77
2019-05-01T12:12:55.213Z,81.63
2019-05-01T12:15:24.061Z,84.35
2019-05-01T12:17:52.831Z,80.03
2019-05-01T12:20:22.559Z,80.10
2019-05-01T12:22:51.725Z,70.85
2019-05-01T12:25:20.662Z,85.37
2019-05-01T12:27:49.701Z,84.07
2019-05-01T12:30:18.940Z,74.92
2019-05-01T12:32:47.793Z,81.92
2019-05-01T12:35:16.633Z,68.83
2019-05-01T12:37:45.370Z,78.05
2019-05-01T12:40:17.299Z,74.25
2019-05-01T12:42:46.106Z,82.53
2019-05-01T12:45:15.941Z,77.90
2019-05-01T12:47:49.450Z,76.77
2019-05-01T12:50:18.614Z,75.30
2019-05-01T12:52:49.002Z,80.30
2019-05-01T12:55:19.406Z,76.87
2019-05-01T12:57:48.143Z,76.12
2019-05-01T13:00:18.548Z,70.20
2019-05-01T13:02:47.372Z,72.42
2019-05-01T13:05:16.238Z,68.65
2019-05-01T13:07:45.005Z,74.32
2019-05-01T13:10:13.949Z,70.97
2019-05-01T13:12:42.783Z,69.22
2019-05-01T13:15:11.695Z,68.62
2019-05-01T13:17:40.555Z,70.55
2019-05-01T13:20:09.289Z,69.77
2019-05-01T13:22:38.059Z,73.35
2019-05-01T13:25:07.589Z,73.97
2019-05-01T13:27:38.001Z,68.28
2019-05-01T13:30:11.329Z,65.40
2019-05-01T13:32:41.745Z,58.33
2019-05-01T13:35:10.680Z,74.35
2019-05-01T13:37:39.616Z,73.15
2019-05-01T13:40:09.536Z,67.95
2019-05-01T13:42:38.301Z,71.15
2019-05-01T13:45:08.548Z,62.10
2019-05-01T13:47:37.381Z,67.05
2019-05-01T13:50:07.089Z,82.22
2019-05-01T13:52:35.856Z,73.83
2019-05-01T13:55:06.231Z,78.92
2019-05-01T13:57:34.964Z,70.95
2019-05-01T14:00:07.752Z,68.67
2019-05-01T14:02:36.565Z,67.75
2019-05-01T14:05:08.380Z,67.82
2019-05-01T14:07:37.167Z,67.80
2019-05-01T14:10:06.506Z,68.65
2019-05-01T14:12:35.354Z,71.60
2019-05-01T14:15:04.785Z,67.25
2019-05-01T14:17:33.544Z,68.17
2019-05-01T14:20:06.912Z,81.05
2019-05-01T14:22:43.322Z,68.05
2019-05-01T14:25:13.732Z,76.65
2019-05-01T14:27:42.472Z,73.97
2019-05-01T14:30:11.920Z,78.95
2019-05-01T14:32:40.728Z,76.40
2019-05-01T14:35:09.909Z,72.03
2019-05-01T14:37:38.828Z,82.55
2019-05-01T14:40:09.169Z,71.37
2019-05-01T14:42:37.977Z,79.75
2019-05-01T14:45:08.813Z,73.70
2019-05-01T14:47:37.593Z,78.45
2019-05-01T14:50:06.960Z,79.27
2019-05-01T14:52:35.733Z,76.62
2019-05-01T14:55:06.857Z,70.28
2019-05-01T14:57:35.640Z,73.62
2019-05-01T15:00:06.253Z,69.60
2019-05-01T15:02:35.106Z,74.90
2019-05-01T15:05:05.445Z,71.60
2019-05-01T15:07:43.485Z,75.00
2019-05-01T15:10:05.940Z,66.37
2019-05-01T15:12:34.789Z,72.95
2019-05-01T15:15:17.316Z,79.67
2019-05-01T15:17:50.412Z,72.58
2019-05-01T15:20:19.209Z,66.50
2019-05-01T15:22:48.009Z,72.92
2019-05-01T15:25:16.713Z,76.25
2019-05-01T15:27:45.650Z,78.75
2019-05-01T15:30:17.532Z,78.22
2019-05-01T15:32:46.773Z,80.75
2019-05-01T15:35:15.511Z,79.05
2019-05-01T15:37:56.089Z,75.65
2019-05-01T15:40:16.413Z,56.07
2019-05-01T15:42:52.804Z,62.98
2019-05-01T15:45:21.624Z,65.12
2019-05-01T15:47:50.424Z,75.23
2019-05-01T15:50:19.260Z,81.47
2019-05-01T15:52:47.997Z,73.62
2019-05-01T15:55:16.939Z,68.57
2019-05-01T15:57:45.748Z,63.98
2019-05-01T16:00:16.557Z,66.33
2019-05-01T16:02:45.297Z,66.30
2019-05-01T16:05:14.420Z,77.97
2019-05-01T16:07:43.228Z,75.83
2019-05-01T16:10:14.130Z,69.32
2019-05-01T16:12:44.507Z,72.50
2019-05-01T16:15:17.748Z,75.90
2019-05-01T16:17:46.561Z,70.47
2019-05-01T16:20:16.817Z,81.30
2019-05-01T16:22:45.967Z,67.20
2019-05-01T16:25:15.110Z,70.65
2019-05-01T16:27:43.957Z,69.93
2019-05-01T16:30:14.444Z,68.73
2019-05-01T16:32:43.214Z,67.58
2019-05-01T16:35:11.957Z,70.50
2019-05-01T16:37:40.738Z,60.92
2019-05-01T16:40:17.309Z,62.62
2019-05-01T16:42:46.116Z,67.65
2019-05-01T16:45:15.432Z,70.15
2019-05-01T16:47:44.198Z,68.80
2019-05-01T16:50:13.149Z,71.47
2019-05-01T16:52:43.389Z,73.37
2019-05-01T16:55:13.725Z,63.83
2019-05-01T16:57:42.492Z,71.80
2019-05-01T17:00:12.902Z,71.25
2019-05-01T17:02:52.392Z,71.77
2019-05-01T17:05:28.625Z,74.15
2019-05-01T17:07:59.028Z,72.05
2019-05-01T17:10:35.425Z,69.05
2019-05-01T17:13:05.052Z,71.77
2019-05-01T17:15:35.431Z,77.60
2019-05-01T17:18:04.297Z,65.62
2019-05-01T17:20:33.120Z,65.78
2019-05-01T17:23:01.960Z,62.75
2019-05-01T17:25:30.770Z,67.40
2019-05-01T17:28:02.974Z,65.42
2019-05-01T17:30:45.075Z,65.20
2019-05-01T17:33:19.552Z,64.47
2019-05-01T17:35:44.217Z,73.67
2019-05-01T17:38:12.985Z,64.03
2019-05-01T17:40:41.728Z,63.50
2019-05-01T17:43:13.409Z,59.33
2019-05-01T17:45:40.951Z,64.20
2019-05-01T17:48:10.791Z,60.48
2019-05-01T17:50:39.485Z,52.58
2019-05-01T17:53:08.261Z,57.23
2019-05-01T17:55:37.070Z,59.70
2019-05-01T17:58:05.936Z,36.23
2019-05-01T18:00:39.066Z,36.90
2019-05-01T18:03:26.137Z,25.92
2019-05-01T18:06:08.400Z,26.05
2019-05-01T18:08:37.237Z,28.87
2019-05-01T18:11:09.298Z,23.35
2019-05-01T18:13:36.433Z,33.18
2019-05-01T18:16:05.341Z,48.17
2019-05-01T18:18:34.111Z,48.95
2019-05-01T18:21:03.360Z,49.88
2019-05-01T18:23:53.031Z,39.45
2019-05-01T18:26:38.765Z,52.95
2019-05-01T18:29:10.173Z,49.20
2019-05-01T18:31:42.111Z,52.25
2019-05-01T18:34:11.466Z,55.33
2019-05-01T18:36:44.648Z,54.30
2019-05-01T18:39:16.983Z,59.77
2019-05-01T18:41:50.757Z,61.33
2019-05-01T18:44:24.416Z,59.23
2019-05-01T18:46:53.368Z,58.15
2019-05-01T18:49:22.280Z,62.98
2019-05-01T18:51:51.973Z,67.20
2019-05-01T18:54:20.852Z,66.70
2019-05-01T18:56:50.318Z,71.05
2019-05-01T18:59:20.556Z,80.45
2019-05-01T19:01:50.753Z,84.67
2019-05-01T19:04:23.567Z,75.08
2019-05-01T19:06:49.994Z,72.75
2019-05-01T19:09:29.369Z,80.92
2019-05-01T19:11:49.208Z,69.03
2019-05-01T19:14:18.621Z,85.12
2019-05-01T19:16:47.464Z,74.77
2019-05-01T19:19:16.308Z,77.00
2019-05-01T19:21:46.539Z,89.45
2019-05-01T19:24:16.513Z,80.87
2019-05-01T19:26:45.430Z,85.95
2019-05-01T19:29:14.257Z,96.57
2019-05-01T19:31:43.104Z,95.33
2019-05-01T19:34:11.893Z,91.08
2019-05-01T19:36:45.137Z,98.65
2019-05-01T19:39:12.861Z,88.92
2019-05-01T19:41:43.788Z,98.47
2019-05-01T19:44:13.849Z,105.60
2019-05-01T19:46:42.738Z,97.88
2019-05-01T19:49:11.550Z,109.95
2019-05-01T19:51:40.254Z,110.93
2019-05-01T19:54:09.028Z,112.75
2019-05-01T19:56:37.853Z,112.32
2019-05-01T19:59:06.629Z,113.40
2019-05-01T20:01:38.457Z,105.17
2019-05-01T20:04:08.442Z,109.92
2019-05-01T20:06:38.547Z,109.35
2019-05-01T20:09:07.006Z,109.47
2019-05-01T20:11:35.829Z,119.62
2019-05-01T20:14:06.222Z,125.75
2019-05-01T20:16:35.251Z,116.62
2019-05-01T20:19:04.159Z,132.32
2019-05-01T20:21:32.956Z,130.93
2019-05-01T20:24:04.402Z,122.87
2019-05-01T20:26:33.995Z,170.70
2019-05-01T20:29:02.768Z,170.50
2019-05-01T20:31:32.862Z,167.85
2019-05-01T20:34:01.806Z,150.70
2019-05-01T20:36:30.553Z,154.95
2019-05-01T20:38:59.361Z,155.57
2019-05-01T20:41:28.297Z,160.82
2019-05-01T20:43:57.036Z,167.68
2019-05-01T20:46:27.724Z,166.03
2019-05-01T20:49:00.954Z,170.10
2019-05-01T20:51:26.762Z,160.25
2019-05-01T20:53:55.534Z,157.07
2019-05-01T20:56:26.352Z,162.18
2019-05-01T20:58:57.623Z,168.78
2019-05-01T21:01:28.224Z,169.62
2019-05-01T21:03:59.184Z,171.55
2019-05-01T21:06:29.602Z,176.72
2019-05-01T21:09:13.819Z,177.43
2019-05-01T21:11:42.239Z,181.97
2019-05-01T21:14:22.599Z,181.75
2019-05-01T21:16:43.381Z,145.55
2019-05-01T21:19:12.180Z,132.87
2019-05-01T21:21:41.150Z,153.10
2019-05-01T21:24:09.880Z,153.07
2019-05-01T21:26:38.684Z,151.42
2019-05-01T21:29:07.436Z,157.20
2019-05-01T21:31:36.277Z,161.12
2019-05-01T21:34:05.096Z,164.28
2019-05-01T21:36:33.865Z,150.68
2019-05-01T21:39:02.686Z,164.83
2019-05-01T21:41:32.878Z,161.03
2019-05-01T21:44:03.127Z,174.50
2019-05-01T21:46:33.945Z,175.85
2019-05-01T21:49:02.770Z,176.90
2019-05-01T21:51:32.858Z,180.20
2019-05-01T21:54:03.293Z,189.70
2019-05-01T21:56:32.157Z,182.93
2019-05-01T21:59:06.640Z,188.90
2019-05-01T22:01:34.882Z,188.72
2019-05-01T22:04:02.346Z,189.50
2019-05-01T22:06:31.288Z,203.30
2019-05-01T22:09:00.264Z,199.05
2019-05-01T22:11:33.044Z,194.87
2019-05-01T22:14:02.037Z,197.93
2019-05-01T22:16:31.069Z,194.47
2019-05-01T22:19:01.584Z,196.53
2019-05-01T22:21:34.677Z,200.60
2019-05-01T22:24:14.216Z,204.03
2019-05-01T22:26:50.457Z,192.13
2019-05-01T22:29:20.877Z,193.65
2019-05-01T22:32:07.148Z,192.37
2019-05-01T22:34:46.529Z,198.85
2019-05-01T22:37:15.270Z,211.35
2019-05-01T22:39:45.688Z,199.17
2019-05-01T22:42:14.500Z,211.62
2019-05-01T22:44:43.345Z,212.57
2019-05-01T22:47:15.002Z,219.13
2019-05-01T22:49:42.617Z,217.95
2019-05-01T22:52:11.357Z,225.07
2019-05-01T22:54:40.124Z,241.10
2019-05-01T22:57:08.866Z,236.25
2019-05-01T22:59:37.637Z,232.40
2019-05-01T23:02:24.243Z,223.17
2019-05-01T23:04:52.071Z,232.98
2019-05-01T23:07:21.169Z,232.10
2019-05-01T23:09:50.008Z,228.37
2019-05-01T23:12:18.824Z,232.65
2019-05-01T23:14:47.664Z,232.83
2019-05-01T23:17:20.641Z,233.17
2019-05-01T23:19:49.576Z,235.60
2019-05-01T23:22:18.584Z,220.27
2019-05-01T23:24:47.423Z,241.50
2019-05-01T23:27:16.229Z,244.97
2019-05-01T23:29:45.049Z,240.60
2019-05-01T23:32:13.906Z,248.82
2019-05-01T23:34:42.646Z,237.35
2019-05-01T23:37:11.414Z,250.25
2019-05-01T23:39:42.095Z,245.07
2019-05-01T23:42:10.675Z,250.68
2019-05-01T23:44:43.034Z,244.60
2019-05-01T23:47:09.905Z,244.00
2019-05-01T23:49:38.717Z,265.80
2019-05-01T23:52:07.552Z,252.50
2019-05-01T23:54:36.292Z,260.25
2019-05-01T23:57:05.072Z,244.20
2019-05-01T23:59:33.881Z,250.22
